Time;durP1;ratioP1;P1;durP2;ratioP2;P2;SDS_P1;SDS_P2;PMS_P1;PMS_P2;Temp;Humidity;BMP_temperature;BMP_pressure;BME280_temperature;BME280_humidity;BME280_pressure;Samples;Min_cycle;Max_cycle;Signal;HPM_P1;HPM_P2
2024/04/17 00:12:26;;;;;;;7.10;4.70;;;;;;;8.53;91.53;98746.83;681615;1267;138378;-80
2024/04/17 00:27:29;;;;;;;6.90;3.70;;;;;;;8.65;90.04;98744.70;681689;1267;138926;-80
2024/04/17 00:42:31;;;;;;;4.70;3.30;;;;;;;8.68;89.49;98743.44;681607;1263;139607;-80
2024/04/17 00:57:36;;;;;;;4.60;3.10;;;;;;;8.66;88.93;98746.20;681657;1263;138568;-79
2024/04/17 01:12:40;;;;;;;4.90;3.60;;;;;;;8.64;88.97;98749.20;681384;1263;138820;-80
2024/04/17 01:27:43;;;;;;;5.60;3.30;;;;;;;8.49;88.54;98748.26;681639;1267;138239;-81
2024/04/17 01:42:46;;;;;;;5.00;3.50;;;;;;;8.39;88.68;98754.15;681412;1266;138755;-80
2024/04/17 01:57:49;;;;;;;5.00;3.20;;;;;;;8.38;88.98;98753.05;681550;1268;138776;-81
2024/04/17 02:12:52;;;;;;;7.10;4.00;;;;;;;8.39;89.04;98749.96;681608;1278;139772;-80
2024/04/17 02:27:55;;;;;;;7.60;5.10;;;;;;;8.44;89.12;98752.95;681493;1263;139014;-81
2024/04/17 02:43:00;;;;;;;10.20;5.40;;;;;;;8.37;89.61;98779.64;681893;1269;139148;-81
2024/04/17 02:58:03;;;;;;;10.60;6.80;;;;;;;8.34;89.89;98790.02;682415;1268;137421;-80
2024/04/17 03:13:07;;;;;;;12.00;6.40;;;;;;;8.38;90.54;98799.54;681621;1269;138661;-80
2024/04/17 03:28:11;;;;;;;9.40;5.80;;;;;;;8.38;90.81;98813.48;681616;1263;139120;-80
2024/04/17 03:43:14;;;;;;;13.60;7.40;;;;;;;8.45;91.15;98827.04;681374;1269;138725;-81
2024/04/17 03:58:17;;;;;;;9.80;6.30;;;;;;;8.41;91.25;98842.84;681566;1267;138579;-80
2024/04/17 04:13:20;;;;;;;11.30;7.10;;;;;;;8.34;91.59;98865.95;681471;1268;138443;-80
2024/04/17 04:28:23;;;;;;;14.70;8.30;;;;;;;8.25;92.10;98877.55;681494;1267;138821;-79
2024/04/17 04:43:26;;;;;;;25.80;13.50;;;;;;;7.93;93.03;98898.98;681481;1269;139429;-82
2024/04/17 04:58:29;;;;;;;12.20;6.30;;;;;;;7.72;92.54;98916.98;681494;1269;140305;-79
2024/04/17 05:13:33;;;;;;;17.70;8.60;;;;;;;7.40;91.38;98930.27;681416;1263;140035;-80
2024/04/17 05:28:37;;;;;;;13.00;6.40;;;;;;;7.36;91.42;98944.18;681495;1269;140948;-79
2024/04/17 05:43:40;;;;;;;20.80;8.40;;;;;;;7.38;91.30;98968.33;681372;1268;138784;-79
2024/04/17 05:58:44;;;;;;;8.70;5.40;;;;;;;7.42;90.96;98991.04;681568;1264;138541;-79
2024/04/17 06:13:47;;;;;;;9.80;4.50;;;;;;;7.48;90.51;99016.23;681407;1266;138388;-80
2024/04/17 06:28:50;;;;;;;8.40;4.80;;;;;;;7.68;90.04;99032.64;681461;1267;139790;-79
2024/04/17 06:43:53;;;;;;;15.10;6.20;;;;;;;7.76;89.63;99048.52;681414;1267;139219;-80
2024/04/17 06:58:57;;;;;;;6.20;3.80;;;;;;;7.95;88.97;99065.06;681259;1275;138608;-80
2024/04/17 07:14:00;;;;;;;12.10;6.30;;;;;;;8.10;86.66;99081.41;678986;1278;139108;-79
2024/04/17 07:29:04;;;;;;;9.70;6.30;;;;;;;8.20;85.34;99101.45;676920;1276;138725;-80
2024/04/17 07:44:09;;;;;;;11.70;6.10;;;;;;;8.23;83.68;99114.63;676566;1279;139139;-81
2024/04/17 07:59:12;;;;;;;10.70;7.10;;;;;;;8.71;82.48;99123.51;676418;1278;138743;-81
2024/04/17 08:14:15;;;;;;;18.80;10.30;;;;;;;8.79;80.28;99140.20;676375;1279;140056;-80
2024/04/17 08:29:18;;;;;;;41.30;13.90;;;;;;;8.79;79.79;99148.08;676418;1277;140040;-80
2024/04/17 08:44:29;;;;;;;15.00;7.40;;;;;;;9.06;79.43;99163.92;676572;1279;139458;-80
2024/04/17 08:59:32;;;;;;;12.50;5.90;;;;;;;9.66;78.51;99180.61;676560;1279;138689;-80
2024/04/17 09:14:35;;;;;;;5.70;3.70;;;;;;;9.68;76.57;99188.92;676661;1279;138587;-80
2024/04/17 09:29:53;;;;;;;6.90;4.00;;;;;;;9.69;76.15;99200.73;676552;1279;138852;-79
2024/04/17 09:45:00;;;;;;;15.60;5.80;;;;;;;10.20;75.00;99210.20;676100;1276;139210;-81
2024/04/17 10:00:05;;;;;;;15.10;5.60;;;;;;;10.33;74.06;99211.66;676358;1273;141290;-79
2024/04/17 10:15:11;;;;;;;8.70;3.30;;;;;;;10.55;73.05;99226.17;676129;1273;140825;-79
2024/04/17 10:30:14;;;;;;;13.50;4.40;;;;;;;10.50;72.20;99232.42;676302;1274;138489;-81
2024/04/17 10:45:18;;;;;;;165.90;57.00;;;;;;;11.21;71.31;99240.08;675848;1273;219878;-80
2024/04/17 11:00:21;;;;;;;7.30;3.40;;;;;;;12.01;69.17;99242.61;676050;1275;141191;-80
2024/04/17 11:15:24;;;;;;;14.90;7.20;;;;;;;12.51;66.89;99247.48;676340;1273;139175;-81
2024/04/17 11:30:28;;;;;;;10.00;4.10;;;;;;;12.14;65.65;99267.16;676381;1276;139727;-81
2024/04/17 11:45:31;;;;;;;133.90;45.40;;;;;;;11.76;64.72;99273.03;676590;1272;138964;-80
2024/04/17 12:00:34;;;;;;;110.40;41.10;;;;;;;12.14;64.47;99286.25;676068;1279;139580;-81
2024/04/17 12:15:38;;;;;;;12.60;5.50;;;;;;;12.08;63.41;99295.32;676243;1273;139514;-81
2024/04/17 12:30:41;;;;;;;13.80;6.80;;;;;;;11.02;65.31;99312.60;675892;1278;140080;-79
2024/04/17 12:45:45;;;;;;;8.40;4.30;;;;;;;10.97;66.70;99314.12;676423;1273;138875;-80
2024/04/17 13:00:48;;;;;;;11.60;6.40;;;;;;;11.64;66.57;99317.66;676059;1273;139632;-81
2024/04/17 13:15:55;;;;;;;12.10;5.60;;;;;;;12.12;64.13;99330.33;676271;1282;140162;-79
2024/04/17 13:31:00;;;;;;;10.40;5.20;;;;;;;12.20;62.82;99333.24;676113;1273;140409;-79
2024/04/17 13:46:08;;;;;;;7.50;3.20;;;;;;;12.06;61.76;99342.00;676344;1272;139151;-81
2024/04/17 14:01:11;;;;;;;;;;;;;;;13.05;60.85;99333.63;676142;1276;138719;-80
2024/04/17 14:16:14;;;;;;;9.90;4.90;;;;;;;12.52;60.85;99332.86;676698;1276;125690;-79
2024/04/17 14:31:18;;;;;;;10.90;4.50;;;;;;;12.24;61.44;99354.44;676604;1277;138402;-79
2024/04/17 14:46:22;;;;;;;8.10;4.60;;;;;;;12.10;61.61;99365.87;676583;1277;138311;-79
2024/04/17 15:01:25;;;;;;;13.00;6.20;;;;;;;12.38;61.70;99361.44;676302;1276;138560;-80
2024/04/17 15:16:28;;;;;;;22.30;11.90;;;;;;;12.71;59.75;99365.77;676524;1277;138316;-81
2024/04/17 15:31:32;;;;;;;7.70;4.00;;;;;;;11.85;60.01;99369.04;676435;1276;139226;-79
2024/04/17 15:46:35;;;;;;;15.90;8.90;;;;;;;12.35;59.52;99375.88;676626;1276;139427;-80
2024/04/17 16:01:39;;;;;;;12.70;5.40;;;;;;;12.27;58.60;99386.17;676586;1273;139885;-80
2024/04/17 16:16:42;;;;;;;21.30;9.40;;;;;;;12.38;58.31;99394.11;676715;1278;139420;-79
2024/04/17 16:31:47;;;;;;;19.90;10.40;;;;;;;12.11;57.94;99400.64;676414;1278;139152;-80
2024/04/17 16:46:52;;;;;;;14.90;5.50;;;;;;;11.76;57.77;99415.89;676883;1277;139291;-79
2024/04/17 17:01:56;;;;;;;22.20;7.70;;;;;;;10.78;58.49;99434.30;676810;1277;139316;-79
2024/04/17 17:17:00;;;;;;;15.10;7.20;;;;;;;10.11;59.51;99448.00;677009;1279;138236;-80
2024/04/17 17:32:04;;;;;;;49.10;18.30;;;;;;;9.27;61.16;99462.12;676866;1288;138757;-81
2024/04/17 17:47:08;;;;;;;56.80;24.50;;;;;;;8.66;62.99;99486.13;678281;1275;137650;-81
2024/04/17 18:02:11;;;;;;;41.90;18.50;;;;;;;8.44;63.86;99505.86;678907;1273;140395;-81
2024/04/17 18:17:14;;;;;;;120.30;47.50;;;;;;;7.86;64.56;99521.10;676863;1275;139965;-81
2024/04/17 18:32:18;;;;;;;84.80;29.10;;;;;;;7.27;66.26;99542.61;676602;1272;139298;-81
2024/04/17 18:47:21;;;;;;;208.30;82.70;;;;;;;7.11;66.62;99550.73;676976;1273;138765;-81
2024/04/17 19:02:25;;;;;;;140.00;55.40;;;;;;;6.83;67.65;99568.36;676678;1277;138892;-81
2024/04/17 19:17:28;;;;;;;131.50;45.50;;;;;;;6.53;68.82;99577.47;676562;1272;139059;-81
2024/04/17 19:32:31;;;;;;;83.50;37.10;;;;;;;6.24;68.74;99584.36;676713;1272;139667;-81
2024/04/17 19:47:34;;;;;;;89.30;35.60;;;;;;;5.92;69.15;99591.22;676883;1272;140640;-80
2024/04/17 20:02:41;;;;;;;87.20;34.60;;;;;;;5.66;70.48;99601.94;676333;1276;138826;-80
2024/04/17 20:17:46;;;;;;;38.00;20.10;;;;;;;5.30;71.59;99620.10;676518;1276;138676;-80
2024/04/17 20:32:49;;;;;;;291.80;91.50;;;;;;;5.01;71.95;99620.22;676565;1272;140288;-80
2024/04/17 20:47:56;;;;;;;128.70;39.90;;;;;;;4.78;73.29;99622.41;676631;1278;138959;-81
2024/04/17 21:03:03;;;;;;;98.30;38.20;;;;;;;4.58;74.34;99631.54;676291;1279;139039;-81
2024/04/17 21:18:08;;;;;;;59.60;31.70;;;;;;;4.42;74.82;99631.00;676593;1273;138783;-80
2024/04/17 21:33:14;;;;;;;38.50;20.20;;;;;;;4.23;75.06;99638.73;676552;1277;139103;-80
2024/04/17 21:48:17;;;;;;;31.30;14.10;;;;;;;4.03;75.52;99647.73;676328;1276;139581;-80
2024/04/17 22:03:25;;;;;;;32.00;14.70;;;;;;;3.91;75.90;99661.02;676736;1273;139035;-79
2024/04/17 22:18:29;;;;;;;33.00;14.20;;;;;;;3.67;76.05;99668.40;676793;1278;139351;-80
2024/04/17 22:33:32;;;;;;;208.20;61.40;;;;;;;3.63;76.67;99673.05;677044;1277;139915;-80
2024/04/17 22:48:35;;;;;;;76.60;26.00;;;;;;;3.82;77.17;99675.15;676573;1287;152714;-80
2024/04/17 23:03:40;;;;;;;33.90;13.70;;;;;;;4.16;78.48;99679.03;676832;1279;138682;-80
2024/04/17 23:18:44;;;;;;;41.90;18.10;;;;;;;4.42;79.03;99679.77;676755;1277;138859;-80
2024/04/17 23:33:47;;;;;;;35.30;12.70;;;;;;;4.53;79.24;99681.61;677017;1276;139686;-80
2024/04/17 23:48:50;;;;;;;22.40;8.60;;;;;;;4.77;80.14;99678.48;676391;1278;139325;-80
